EST,Max TemperatureF,Mean TemperatureF,Min TemperatureF,Max Dew PointF,MeanDew PointF,Min DewpointF,Max Humidity, Mean Humidity, Min Humidity, Max Sea Level PressureIn, Mean Sea Level PressureIn, Min Sea Level PressureIn, Max VisibilityMiles, Mean VisibilityMiles, Min VisibilityMiles, Max Wind SpeedMPH, Mean Wind SpeedMPH, Max Gust SpeedMPH,PrecipitationIn, CloudCover, Events, WindDirDegrees
2013-2-1,14,8,3,6,0,-8,74,62,53,30.11,30.06,29.92,,,,20,13,25,0.07,,,294
2013-2-2,15,8,0,4,-2,-8,80,68,51,30.09,30.07,30.01,,,,16,8,22,0.04,,,255
2013-2-3,16,8,0,8,1,-6,77,72,64,29.98,29.90,29.82,,,,16,7,30,0.18,,,247
2013-2-4,14,5,-5,5,0,-11,80,71,52,30.00,29.97,29.92,,,,13,8,21,0.10,,,250
2013-2-5,23,9,-5,17,5,-11,80,72,61,30.01,29.83,29.72,,,,18,9,26,0.09,,,275
2013-2-6,21,16,10,14,8,3,81,68,53,30.23,30.17,30.04,,,,9,4,,0.04,,,169
2013-2-7,24,21,18,16,14,12,81,76,68,30.25,30.22,30.19,,,,22,4,29,0.06,,,46
2013-2-8,23,13,0,15,9,-5,80,73,65,30.42,30.34,30.23,,,,18,14,21,0.01,,,4
2013-2-9,28,13,-2,20,10,-8,80,75,64,30.42,30.27,30.12,,,,18,10,29,0.00,,,188
2013-2-10,34,30,26,31,24,20,89,78,64,30.12,29.86,29.43,,,,15,6,31,0.39,,,160
2013-2-11,37,31,25,34,26,16,92,82,69,29.79,29.45,29.26,,,,26,9,39,0.22,,,275
2013-2-12,28,24,18,19,16,13,81,70,58,29.95,29.87,29.78,,,,16,10,25,0.02,,,264
2013-2-13,39,29,19,23,19,12,81,70,51,29.76,29.67,29.62,,,,12,7,,0.00,,,191
2013-2-14,33,27,21,27,21,12,88,76,65,29.92,29.74,29.64,,,,23,8,31,0.02,,,349
2013-2-15,21,16,12,15,9,5,78,68,57,30.16,30.07,29.93,,,,21,15,30,0.04,,,321
2013-2-16,18,14,10,10,7,3,84,74,62,30.17,30.12,30.08,,,,14,6,,0.25,,,54
2013-2-17,21,11,1,7,2,-5,80,62,44,30.18,30.12,30.01,,,,13,6,18,0.01,,,181
2013-2-18,34,26,18,29,20,7,88,72,60,29.99,29.69,29.43,,,,15,10,26,0.07,,,171
2013-2-19,32,23,14,29,18,6,92,82,71,29.94,29.56,29.30,,,,31,17,47,5.44,,,341
2013-2-20,21,16,12,15,10,5,81,76,67,30.39,30.22,29.97,,,,30,25,40,8.23,,,353
2013-2-21,23,20,16,18,16,12,89,81,74,30.48,30.42,30.34,,,,20,14,24,1.54,,,22
2013-2-22,25,20,15,21,16,10,85,79,74,30.33,30.06,29.82,,,,14,3,17,0.33,,,99
2013-2-23,32,26,21,26,22,17,89,81,66,29.84,29.77,29.74,,,,6,1,,0.09,,,198
2013-2-24,30,28,25,26,23,20,92,78,66,30.13,30.02,29.85,,,,15,3,21,0.03,,,308
2013-2-25,36,32,27,24,22,21,81,70,55,30.16,30.14,30.11,,,,10,4,17,0.00,,,195
2013-2-26,35,28,21,26,23,16,82,72,59,30.15,30.06,29.94,,,,13,6,,0.00,,,84
2013-2-27,33,29,25,29,26,19,88,83,78,29.91,29.83,29.78,,,,25,17,31,0.20,,,29
2013-2-28,32,28,23,28,20,16,85,75,66,30.22,30.04,29.86,,,,33,25,41,0.01,,,22